Latest Weather Observations for Nambour

IDQ60901

Issued at 5:51 pm EST Tuesday 10 December 2019 (issued every 10 minutes, with the page automatically refreshed every 10 minutes)

About weather observations | Map of Brisbane area stations | Latest observations for Brisbane area | Other Formats
Station Details ID: 040988 Name: NAMBOUR DAFF - HILLSIDE Lat: -26.64 Lon: 152.94 Height: 53.24 m
Data from the previous 72 hours. | See also: Recent months at Nambour
Date/Time
EST
Temp
°C
App
Temp
°C
Dew
Point
°C
Rel
Hum
%
Delta-T
°C
Wind Press
QNH
hPa
Press
MSL
hPa
Rain since
9am
mm
Dir  Spd
km/h
Gust
km/h
Spd
kts
Gust
kts
10/05:30pm 27.3 28.4 18.9 60 5.4 N 11 20 6 11 1013.9 1013.6 0.0
10/05:00pm 27.8 27.7 17.9 54 6.3 NNE 15 24 8 13 1013.6 1013.3 0.0
10/04:30pm 28.7 28.7 18.2 53 6.7 NNE 15 20 8 11 1013.5 1013.2 0.0
10/04:00pm 29.5 29.2 18.3 51 7.2 ENE 17 30 9 16 1013.5 1013.2 0.0
10/03:30pm 29.6 29.1 17.8 49 7.5 ENE 17 30 9 16 1013.7 1013.4 0.0
10/03:00pm 30.2 29.8 18.0 48 7.8 ENE 17 26 9 14 1013.9 1013.6 0.0
10/02:30pm 30.3 29.5 18.1 48 7.8 ENE 19 30 10 16 1014.4 1014.1 0.0
10/02:00pm 30.4 29.9 17.8 46 8.1 NE 17 26 9 14 1014.8 1014.5 0.0
10/01:30pm 30.8 30.2 18.5 47 8.0 ENE 19 32 10 17 1015.0 1014.7 0.0
10/01:00pm 31.2 31.9 18.9 48 8.0 ENE 13 24 7 13 1015.4 1015.1 0.0
10/12:30pm 31.1 32.6 19.8 51 7.4 NE 11 19 6 10 1015.8 1015.5 0.0
10/12:00pm 29.7 30.4 18.8 52 7.0 E 13 24 7 13 1016.3 1016.0 0.0
10/11:30am 30.6 32.6 18.7 49 7.7 NW 6 11 3 6 1016.8 1016.5 0.0
10/11:00am 30.1 32.3 19.2 52 7.1 NNW 6 13 3 7 1017.4 1017.1 0.0
10/10:30am 28.5 29.9 18.6 55 6.4 N 9 15 5 8 1017.8 1017.5 0.0
10/10:00am 28.4 30.0 19.1 57 6.0 NNW 9 13 5 7 1017.9 1017.6 0.0
10/09:30am 28.3 30.5 19.5 59 5.7 N 7 13 4 7 1018.1 1017.9 0.0
10/09:00am 28.3 29.6 19.2 57 5.9 NNE 11 19 6 10 1018.1 1017.9 0.0
10/08:30am 27.5 29.4 19.8 63 5.0 NNW 9 15 5 8 1018.4 1018.2 0.0
10/08:00am 26.9 29.1 20.5 68 4.2 NNE 9 15 5 8 1018.6 1018.4 0.0
10/07:30am 25.2 27.8 20.5 75 3.1 N 7 13 4 7 1018.8 1018.6 0.0
10/07:00am 24.5 28.5 20.6 79 2.5 CALM 0 4 0 2 1018.6 1018.4 0.0
10/06:30am 22.8 27.4 21.8 94 0.7 CALM 0 0 0 0 1018.6 1018.4 0.0
10/06:00am 21.0 25.1 20.8 99 0.1 CALM 0 0 0 0 1018.3 1018.1 0.0
10/05:30am 20.4 24.3 20.4 100 0.0 CALM 0 0 0 0 1018.2 1018.0 0.0
10/05:00am 20.0 23.6 19.8 99 0.1 CALM 0 0 0 0 1018.0 1017.7 0.0
10/04:30am 20.1 23.8 19.9 99 0.1 CALM 0 0 0 0 1018.0 1017.7 0.0
10/04:00am 20.2 23.9 20.0 99 0.1 CALM 0 0 0 0 1017.9 1017.6 0.0
10/03:30am 20.0 23.6 19.8 99 0.1 CALM 0 0 0 0 1017.8 1017.5 0.0
10/03:00am 20.2 23.9 20.0 99 0.1 CALM 0 0 0 0 1017.6 1017.3 0.0
10/02:30am 20.3 24.1 20.1 99 0.1 CALM 0 0 0 0 1017.5 1017.2 0.0
10/02:00am 20.3 24.0 20.0 98 0.2 CALM 0 0 0 0 1017.6 1017.3 0.0
10/01:30am 20.9 25.0 20.7 99 0.1 CALM 0 0 0 0 1017.8 1017.5 0.0
10/01:00am 20.6 24.4 20.1 97 0.3 CALM 0 0 0 0 1017.8 1017.5 0.0
10/12:30am 20.9 24.9 20.6 98 0.2 CALM 0 0 0 0 1018.1 1017.9 0.0
10/12:00am 21.1 25.1 20.6 97 0.3 CALM 0 0 0 0 1018.6 1018.4 0.0
 
Date/Time
EST
Temp
°C
App
Temp
°C
Dew
Point
°C
Rel
Hum
%
Delta-T
°C
Wind Press
QNH
hPa
Press
MSL
hPa
Rain since
9am
mm
Dir  Spd
km/h
Gust
km/h
Spd
kts
Gust
kts
09/11:30pm 21.4 25.5 20.7 96 0.5 CALM 0 0 0 0 1019.0 1018.8 0.0
09/11:00pm 21.8 26.1 21.1 96 0.5 CALM 0 0 0 0 1019.4 1019.2 0.0
09/10:30pm 22.2 26.5 21.2 94 0.7 CALM 0 0 0 0 1019.8 1019.6 0.0
09/10:00pm 22.6 26.8 20.9 90 1.1 CALM 0 0 0 0 1020.0 1019.8 0.0
09/09:30pm 22.7 26.5 20.2 86 1.6 CALM 0 0 0 0 1020.0 1019.8 0.0
09/09:00pm 23.3 27.2 20.4 84 1.9 CALM 0 0 0 0 1019.9 1019.7 0.0
09/08:30pm 23.4 27.1 20.0 81 2.2 CALM 0 2 0 1 1020.0 1019.8 0.0
09/08:00pm 23.8 27.3 20.3 81 2.3 WNW 2 4 1 2 1020.0 1019.8 0.0
09/07:30pm 24.7 28.1 21.0 80 2.4 NNE 4 9 2 5 1019.7 1019.5 0.0
09/07:00pm 25.1 28.0 20.6 76 2.9 NNE 6 9 3 5 1019.5 1019.3 0.0
09/06:30pm 25.3 28.2 19.9 72 3.5 NE 4 7 2 4 1019.1 1018.9 0.0
09/06:00pm 26.1 28.8 20.2 70 3.8 ENE 6 11 3 6 1019.0 1018.8 0.0
09/05:30pm 26.7 28.9 20.3 68 4.2 E 9 17 5 9 1018.7 1018.5 0.0
09/05:00pm 27.0 29.3 20.6 68 4.2 ESE 9 13 5 7 1018.7 1018.5 0.0
09/04:30pm 27.2 29.2 20.8 68 4.2 E 11 22 6 12 1018.6 1018.4 0.0
09/04:00pm 27.2 28.9 21.0 69 4.1 E 13 17 7 9 1018.6 1018.4 0.0
09/03:30pm 27.8 30.1 21.3 67 4.3 E 11 17 6 9 1018.6 1018.4 0.0
09/03:00pm 27.2 28.5 20.8 68 4.2 E 15 24 8 13 1018.7 1018.5 0.0
09/02:30pm 27.7 28.7 21.0 67 4.4 ENE 17 24 9 13 1018.6 1018.4 0.0
09/02:00pm 28.6 30.0 20.3 60 5.5 ENE 13 22 7 12 1018.8 1018.6 0.0
09/01:30pm 28.6 29.5 20.9 63 5.1 ENE 17 24 9 13 1019.1 1018.9 0.0
09/01:00pm 28.4 29.7 20.2 61 5.4 ENE 13 20 7 11 1019.3 1019.1 0.0
09/12:30pm 28.6 30.1 19.8 59 5.8 E 11 17 6 9 1019.6 1019.4 0.0
09/12:00pm 28.9 30.4 19.8 58 5.9 E 11 19 6 10 1019.7 1019.5 0.0
09/11:30am 29.1 30.7 19.1 54 6.5 E 9 17 5 9 1020.1 1019.9 0.0
09/11:00am 29.2 31.4 20.4 59 5.8 E 9 15 5 8 1020.5 1020.3 0.0
09/10:30am 27.9 30.1 19.7 61 5.3 E 7 15 4 8 1020.8 1020.6 0.0
09/10:00am 28.3 30.4 20.1 61 5.4 E 9 17 5 9 1021.0 1020.8 0.0
09/09:30am 26.9 29.3 20.0 66 4.5 E 7 13 4 7 1021.1 1020.9 0.0
09/09:00am 27.2 30.2 20.8 68 4.2 ESE 6 11 3 6 1021.2 1021.0 0.0
09/08:30am 26.3 29.3 20.8 71 3.6 E 6 11 3 6 1021.0 1020.8 0.0
09/08:00am 25.8 29.2 21.0 75 3.2 ESE 4 9 2 5 1021.1 1020.9 0.0
09/07:30am 25.1 28.7 20.6 76 2.9 ESE 2 9 1 5 1021.1 1020.9 0.0
09/07:00am 24.7 27.9 20.6 78 2.7 SE 4 9 2 5 1020.7 1020.5 0.0
09/06:30am 24.3 27.6 20.8 81 2.3 S 4 9 2 5 1020.5 1020.3 0.0
09/06:00am 23.8 27.5 20.7 83 2.0 ESE 2 6 1 3 1020.0 1019.8 0.0
09/05:30am 23.6 27.6 21.3 87 1.5 ESE 2 4 1 2 1019.6 1019.4 0.0
09/05:00am 23.5 28.0 22.3 93 0.8 E 2 4 1 2 1019.4 1019.2 0.0
09/04:30am 23.3 28.2 22.3 94 0.7 CALM 0 4 0 2 1019.0 1018.8 0.0
09/04:00am 23.3 28.1 22.1 93 0.8 CALM 0 0 0 0 1018.8 1018.6 0.0
09/03:30am 23.4 27.8 21.3 88 1.4 CALM 0 0 0 0 1018.9 1018.7 0.0
09/03:00am 23.7 28.3 21.8 89 1.3 CALM 0 0 0 0 1019.0 1018.8 0.0
09/02:30am 23.8 28.5 21.9 89 1.3 CALM 0 4 0 2 1019.1 1018.9 0.0
09/02:00am 23.8 27.9 21.5 87 1.5 WSW 2 4 1 2 1019.0 1018.8 0.0
09/01:30am 24.0 28.6 21.7 87 1.5 CALM 0 0 0 0 1019.1 1018.9 0.0
09/01:00am 24.1 28.6 21.6 86 1.7 CALM 0 0 0 0 1019.2 1019.0 0.0
09/12:30am 24.1 28.7 21.8 87 1.5 CALM 0 0 0 0 1019.3 1019.1 0.0
09/12:00am 24.2 28.7 21.5 85 1.8 CALM 0 0 0 0 1019.6 1019.4 0.0
 
Date/Time
EST
Temp
°C
App
Temp
°C
Dew
Point
°C
Rel
Hum
%
Delta-T
°C
Wind Press
QNH
hPa
Press
MSL
hPa
Rain since
9am
mm
Dir  Spd
km/h
Gust
km/h
Spd
kts
Gust
kts
08/11:30pm 24.4 28.9 21.5 84 1.9 CALM 0 0 0 0 1019.9 1019.7 0.0
08/11:00pm 24.5 28.6 21.6 84 1.9 SW 2 4 1 2 1019.9 1019.7 0.0
08/10:30pm 24.5 29.0 21.6 84 1.9 CALM 0 0 0 0 1019.9 1019.7 0.0
08/10:00pm 24.5 29.0 21.6 84 1.9 CALM 0 0 0 0 1019.9 1019.7 0.0
08/09:30pm 24.6 29.1 21.5 83 2.1 CALM 0 0 0 0 1019.8 1019.6 0.0
08/09:00pm 24.6 28.7 21.5 83 2.1 ESE 2 4 1 2 1019.5 1019.3 0.0
08/08:30pm 24.6 28.7 21.5 83 2.1 ESE 2 6 1 3 1019.3 1019.1 0.0
08/08:00pm 24.7 28.7 21.4 82 2.2 SSE 2 9 1 5 1019.0 1018.8 0.0
08/07:30pm 24.7 27.8 21.4 82 2.2 ESE 7 15 4 8 1018.5 1018.3 0.0
08/07:00pm 24.7 27.9 21.2 81 2.3 ESE 6 13 3 7 1018.4 1018.2 0.0
08/06:30pm 24.8 27.9 21.1 80 2.4 ESE 6 13 3 7 1018.2 1018.0 0.0
08/06:00pm 24.8 28.6 20.9 79 2.6 SE 2 6 1 3 1018.3 1018.1 0.0
08/05:30pm 24.9 27.7 20.8 78 2.7 ESE 7 13 4 7 1017.7 1017.4 0.0
08/05:00pm 25.1 27.2 21.0 78 2.7 ESE 11 17 6 9 1016.8 1016.5 0.0
08/04:30pm 25.5 27.7 20.3 73 3.4 ESE 9 15 5 8 1015.8 1015.5 0.0
08/04:00pm 25.7 27.7 20.0 71 3.7 ESE 9 19 5 10 1015.6 1015.3 0.0
08/03:30pm 25.8 27.5 20.1 71 3.7 ESE 11 22 6 12 1015.4 1015.1 0.0
08/03:00pm 26.5 28.0 20.6 70 3.9 ESE 13 22 7 12 1015.3 1015.0 0.0
08/02:30pm 26.9 28.3 20.3 67 4.3 ESE 13 20 7 11 1015.3 1015.0 0.0
08/02:00pm 28.5 30.4 20.5 62 5.3 ESE 11 20 6 11 1015.3 1015.0 0.0
08/01:30pm 29.6 31.6 20.7 58 5.9 ESE 11 20 6 11 1015.4 1015.1 0.0
08/01:00pm 28.8 31.0 20.5 61 5.5 SE 9 22 5 12 1015.6 1015.3 0.0
08/12:30pm 28.2 30.3 21.0 65 4.8 ESE 11 20 6 11 1015.9 1015.6 0.0
08/12:00pm 28.3 30.5 20.3 62 5.3 ESE 9 20 5 11 1016.2 1015.9 0.0
08/11:30am 27.8 30.2 20.1 63 5.0 ESE 7 13 4 7 1016.6 1016.3 0.0
08/11:00am 26.8 29.1 19.9 66 4.5 ESE 7 15 4 8 1016.9 1016.6 0.0
08/10:30am 26.4 29.2 20.5 70 3.9 SSE 6 13 3 7 1017.2 1016.9 0.0
08/10:00am 25.1 27.7 20.1 74 3.2 SE 6 13 3 7 1017.3 1017.0 0.0
08/09:30am 25.4 28.0 20.4 74 3.3 ESE 7 15 4 8 1017.2 1016.9 0.0
08/09:00am 24.9 28.1 20.4 76 2.9 SSE 4 9 2 5 1017.3 1017.0 0.0
08/08:30am 25.8 28.8 20.8 74 3.3 E 6 15 3 8 1017.1 1016.8 0.0
08/08:00am 26.0 28.5 21.0 74 3.3 ESE 9 15 5 8 1016.7 1016.4 0.0
08/07:30am 25.9 28.8 21.1 75 3.2 ESE 7 13 4 7 1016.5 1016.2 0.0
08/07:00am 25.8 29.4 21.2 76 3.0 S 4 9 2 5 1016.3 1016.0 0.0
08/06:30am 24.9 28.7 21.0 79 2.6 SSE 2 6 1 3 1016.0 1015.7 0.0
08/06:00am 24.5 28.3 21.0 81 2.3 SW 2 6 1 3 1015.7 1015.4 0.0
08/05:30am 24.2 28.0 20.9 82 2.2 WSW 2 4 1 2 1015.3 1015.0 0.0
08/05:00am 24.1 28.2 20.8 82 2.2 CALM 0 0 0 0 1014.9 1014.6 0.0
08/04:30am 24.0 28.1 20.7 82 2.2 CALM 0 0 0 0 1014.3 1014.0 0.0
08/04:00am 24.0 27.8 20.9 83 2.0 ESE 2 6 1 3 1013.9 1013.6 0.0
08/03:30am 24.0 27.7 20.7 82 2.2 SSE 2 6 1 3 1013.6 1013.3 0.0
08/03:00am 24.1 27.8 20.8 82 2.2 SE 2 9 1 5 1013.5 1013.2 0.0
08/02:30am 24.1 27.8 20.8 82 2.2 WSW 2 4 1 2 1013.4 1013.1 0.0
08/02:00am 24.1 27.2 21.0 83 2.0 SSE 6 15 3 8 1013.4 1013.1 0.0
08/01:30am 24.3 27.9 21.2 83 2.0 SE 4 15 2 8 1013.5 1013.2 0.0
08/01:00am 24.5 28.2 21.4 83 2.1 SE 4 9 2 5 1013.3 1013.0 0.0
08/12:30am 24.6 28.6 21.3 82 2.2 ESE 2 7 1 4 1013.3 1013.0 0.0
08/12:00am 24.8 28.5 21.5 82 2.2 S 4 7 2 4 1013.6 1013.3 0.0
 
Date/Time
EST
Temp
°C
App
Temp
°C
Dew
Point
°C
Rel
Hum
%
Delta-T
°C
Wind Press
QNH
hPa
Press
MSL
hPa
Rain since
9am
mm
Dir  Spd
km/h
Gust
km/h
Spd
kts
Gust
kts
07/11:30pm 25.0 28.8 21.7 82 2.2 SW 4 9 2 5 1013.5 1013.2 0.0
07/11:00pm 25.2 29.1 21.9 82 2.2 ESE 4 9 2 5 1013.5 1013.2 0.0
07/10:30pm 25.1 28.6 21.8 82 2.2 ESE 6 13 3 7 1013.4 1013.1 0.0
07/10:00pm 25.3 29.6 22.0 82 2.2 S 2 9 1 5 1013.3 1013.0 0.0
07/09:30pm 25.6 29.9 21.9 80 2.5 ENE 2 6 1 3 1012.7 1012.4 0.0
07/09:00pm 25.9 29.9 21.3 76 3.1 SE 2 6 1 3 1012.3 1012.0 0.0
07/08:30pm 26.8 30.4 20.6 69 4.1 SSW 2 4 1 2 1011.8 1011.5 0.0
07/08:00pm 27.9 31.2 19.9 61 5.2 NE 2 4 1 2 1010.7 1010.4 0.0
07/07:30pm 29.4 31.8 19.7 56 6.4 N 6 13 3 7 1010.1 1009.8 0.0
07/07:00pm 30.4 32.7 19.4 51 7.2 N 6 11 3 6 1009.7 1009.4 0.0
07/06:30pm 31.0 34.0 21.2 56 6.6 NNE 7 13 4 7 1009.3 1009.0 0.0
07/06:00pm 31.4 33.7 21.3 55 6.8 NNE 11 24 6 13 1008.8 1008.5 0.0

Latest Capital City Observations: Canberra | Sydney | Melbourne | Brisbane | Adelaide | Perth | Hobart | Darwin

Other formats

Comma delimited format used in spreadsheet applications
http://www.bom.gov.au/fwo/IDQ60901/IDQ60901.95572.axf

JavaScript Object Notation format (JSON) in row-major order
http://www.bom.gov.au/fwo/IDQ60901/IDQ60901.95572.json

Data quality

Most of these data are generated automatically and are frequently updated. Quality checks on data are not normally performed. It is possible for incorrect values to appear. Refer to information at About Latest Weather Observations and please check the disclaimer before using these data.